Flight Track Log - Related Links

Times and Time Zones

All times are in EDT time to prevent confusion due to time zone crossing. See the ACA990 flight status page for this flight to view local times or setup timezone preferences in your user account.

Time Position Orientation Groundspeed Altitude Reporting Facility
EDT Latitude Longitude Course Direction KTS MPH feet Rate Location/Type
02:54AM 19.9262 -98.8321 25° Northeast  Level FlightAware Approximate
02:55AM 20.0486 -98.7718 25° Northeast  Level FlightAware Approximate
02:56AM 20.1710 -98.7115 25° Northeast  Level FlightAware Approximate
02:57AM 20.2934 -98.6511 25° Northeast  Level FlightAware Approximate
02:58AM 20.4157 -98.5906 25° Northeast  Level FlightAware Approximate
02:59AM 20.5381 -98.5299 25° Northeast  Level FlightAware Approximate
03:00AM 20.6604 -98.4692 25° Northeast  Level FlightAware Approximate
03:01AM 20.7827 -98.4084 25° Northeast  Level FlightAware Approximate
03:02AM 20.9050 -98.3475 25° Northeast  Level FlightAware Approximate
03:03AM 21.0272 -98.2865 25° Northeast  Level FlightAware Approximate
03:04AM 21.1495 -98.2254 25° Northeast  Level FlightAware Approximate
03:05AM 21.2717 -98.1642 25° Northeast  Level FlightAware Approximate
03:06AM 21.3801 -98.1112 24° Northeast  Level FlightAware Approximate
03:07AM 21.5028 -98.0511 24° Northeast  Level FlightAware Approximate
03:08AM 21.6255 -97.9909 25° Northeast  Level FlightAware Approximate
03:09AM 21.7482 -97.9306 25° Northeast  Level FlightAware Approximate
03:10AM 21.8709 -97.8702 25° Northeast  Level FlightAware Approximate
03:11AM 21.9935 -97.8097 25° Northeast  Level FlightAware Approximate
03:12AM 22.1161 -97.7491 25° Northeast  Level FlightAware Approximate
03:13AM 22.2387 -97.6883 25° Northeast  Level FlightAware Approximate
03:14AM 22.3613 -97.6275 25° Northeast  Level FlightAware Approximate
03:15AM 22.4838 -97.5666 25° Northeast  Level FlightAware Approximate
03:16AM 22.6064 -97.5055 25° Northeast  Level FlightAware Approximate
03:17AM 22.7289 -97.4444 25° Northeast  Level FlightAware Approximate
03:18AM 22.8514 -97.3831 25° Northeast  Level FlightAware Approximate
03:19AM 22.9738 -97.3218 25° Northeast  Level FlightAware Approximate
03:20AM 23.0962 -97.2603 25° Northeast  Level FlightAware Approximate
03:21AM 23.2188 -97.1990 25° Northeast  Level FlightAware Approximate
03:22AM 23.3373 -97.1295 32° Northeast  Level FlightAware Approximate
03:23AM 23.4512 -97.0508 32° Northeast  Level FlightAware Approximate
03:24AM 23.5651 -96.9720 32° Northeast  Level FlightAware Approximate
03:25AM 23.6789 -96.8931 32° Northeast  Level FlightAware Approximate
03:26AM 23.7927 -96.8140 32° Northeast  Level FlightAware Approximate
03:27AM 23.9065 -96.7347 32° Northeast  Level FlightAware Approximate
03:28AM 24.0202 -96.6554 33° Northeast  Level FlightAware Approximate
03:29AM 24.1339 -96.5759 33° Northeast  Level FlightAware Approximate
03:30AM 24.2475 -96.4962 33° Northeast  Level FlightAware Approximate
03:31AM 24.3611 -96.4165 33° Northeast  Level FlightAware Approximate
03:32AM 24.4746 -96.3365 33° Northeast  Level FlightAware Approximate
03:33AM 24.5881 -96.2564 33° Northeast  Level FlightAware Approximate
03:34AM 24.7016 -96.1762 33° Northeast  Level FlightAware Approximate
03:35AM 24.8150 -96.0959 33° Northeast  Level FlightAware Approximate
03:36AM 24.9284 -96.0154 33° Northeast  Level FlightAware Approximate
03:37AM 25.0414 -95.9341 33° Northeast  Level FlightAware Approximate
03:38AM 25.1543 -95.8526 33° Northeast  Level FlightAware Approximate
03:39AM 25.2671 -95.7709 33° Northeast  Level FlightAware Approximate
03:40AM 25.3799 -95.6891 33° Northeast  Level FlightAware Approximate
03:41AM 25.4926 -95.6071 33° Northeast  Level FlightAware Approximate
03:41AM 25.0433 -95.8503 45° Northeast 512 589 34,900  Level Houston Center
03:42AM 25.6053 -95.5249 33° Northeast  Level FlightAware Approximate
03:42AM 25.1642 -95.7803 28° Northeast 507 583 35,200  Level Houston Center
03:43AM 25.7003 -95.4192 46° Northeast  Level FlightAware Approximate
03:43AM 25.2861 -95.7097 28° Northeast 505 581 36,100  Level Houston Center
03:44AM 25.7959 -95.3136 45° Northeast  Level FlightAware Approximate
03:44AM 25.4119 -95.6353 28° Northeast 504 580 36,900  Level Houston Center
03:45AM 25.8910 -95.2074 45° Northeast  Level FlightAware Approximate
03:45AM 25.5389 -95.5600 28° Northeast 508 585 37,000  Level Houston Center
03:46AM 25.9861 -95.1010 45° Northeast  Level FlightAware Approximate
03:46AM 25.6497 -95.4742 35° Northeast 504 580 37,000  Level Houston Center
03:47AM 25.7656 -95.3550 43° Northeast 534 615 37,000 -50 Level Houston Center
03:48AM 25.8542 -95.2550 45° Northeast 528 608 36,900 -50 Descending Houston Center
03:49AM 25.9542 -95.1439 45° Northeast 518 596 36,900 50 Level Houston Center
03:50AM 26.0517 -95.0353 45° Northeast 504 580 37,000  Climbing Houston Center
03:51AM 26.1497 -94.9236 46° Northeast 503 579 36,900 -50 Descending Houston Center
03:52AM 26.2497 -94.8131 45° Northeast 505 581 36,900 50 Level Houston Center
03:53AM 26.3514 -94.6975 46° Northeast 513 590 37,000 50 Climbing Houston Center
03:54AM 26.4594 -94.5758 45° Northeast 510 587 37,000  Level Houston Center
03:55AM 26.5611 -94.4617 45° Northeast 516 594 37,000 -700 Level Houston Center
03:56AM 26.6617 -94.3453 46° Northeast 519 597 35,600 -1,450 Descending Houston Center
03:57AM 26.7619 -94.2319 45° Northeast 515 593 34,100 -1,300 Descending Houston Center
03:58AM 26.8633 -94.1164 45° Northeast 521 600 33,000 -550 Descending Houston Center
03:59AM 26.9667 -93.9981 46° Northeast 529 609 33,000  Level Houston Center
04:00AM 27.0694 -93.8800 46° Northeast 531 611 33,000  Level Houston Center
04:01AM 27.1728 -93.7642 45° Northeast 528 608 33,000  Level Houston Center
04:02AM 27.2897 -93.6703 36° Northeast 518 596 33,000  Level Houston Center
04:03AM 27.4064 -93.5728 37° Northeast 523 602 33,000  Level Houston Center
04:04AM 27.5239 -93.4747 36° Northeast 525 604 33,000  Level Houston Center
04:05AM 27.6422 -93.3778 36° Northeast 528 608 33,000  Level Houston Center
04:06AM 27.7581 -93.2808 37° Northeast 523 602 33,000 -50 Level Houston Center
04:07AM 27.8900 -93.1733 36° Northeast 518 596 32,900 -149 Descending Houston Center
04:08AM 28.0058 -93.0769 36° Northeast 518 596 32,700 -650 Descending Houston Center
04:09AM 28.1186 -92.9853 36° Northeast 506 582 31,600 -900 Descending Houston Center
04:10AM 28.2314 -92.8900 37° Northeast 505 581 30,900 -300 Descending Houston Center
04:11AM 28.3444 -92.7947 37° Northeast 508 585 31,000 50 Climbing Houston Center
04:12AM 28.4583 -92.7017 36° Northeast 507 583 31,000  Level Houston Center
04:13AM 28.5719 -92.6044 37° Northeast 511 588 31,000 -50 Level Houston Center
04:14AM 28.6856 -92.5108 36° Northeast 508 585 30,900 -50 Descending Houston Center
04:15AM 28.8000 -92.4142 36° Northeast 511 588 30,900 50 Level Houston Center
04:16AM 28.9183 -92.3233 34° Northeast 513 590 31,000 50 Climbing Houston Center
04:17AM 29.0367 -92.2361 33° Northeast 508 585 31,000  Level Houston Center
04:18AM 29.1550 -92.1411 35° Northeast 515 593 31,000  Level Houston Center
04:19AM 29.2717 -92.0442 36° Northeast 519 597 31,000  Level Houston Center
04:20AM 29.3894 -91.9469 36° Northeast 522 601 31,000  Level Houston Center
04:21AM 29.5031 -91.8494 37° Northeast 517 595 31,000 -50 Level Houston Center
04:22AM 29.6175 -91.7506 37° Northeast 516 594 30,900  Descending Houston Center
04:23AM 29.7253 -91.6583 37° Northeast 517 595 31,000 50 Climbing Houston Center
04:24AM 29.8394 -91.5581 37° Northeast 516 594 31,000 198 Level Houston Center
04:25AM 29.9550 -91.4575 37° Northeast 520 598 31,400 650 Climbing Houston Center
04:26AM 30.0742 -91.3531 37° Northeast 534 615 32,300 950 Climbing Houston Center
04:27AM 30.1928 -91.2494 37° Northeast 535 616 33,300 900 Climbing Houston Center
04:28AM 30.3114 -91.1444 37° Northeast 535 616 34,100 843 Climbing Houston Center
04:29AM 30.4319 -91.0392 37° Northeast 539 620 35,000 446 Climbing Houston Center
04:30AM 30.5522 -90.9344 37° Northeast 539 620 35,000  Level Houston Center
04:31AM 30.6733 -90.8281 37° Northeast 543 625 35,000  Level Houston Center
04:32AM 30.7933 -90.7211 37° Northeast 543 625 35,000  Level Houston Center
04:33AM 30.9139 -90.6139 37° Northeast 543 625 35,000  Level Houston Center
04:34AM 31.0347 -90.5053 38° Northeast 546 628 35,000  Level Houston Center
04:35AM 31.1533 -90.3972 38° Northeast 541 623 35,000  Level Houston Center
04:36AM 31.2708 -90.2894 38° Northeast 538 619 35,000 -50 Level Houston Center
04:37AM 31.3889 -90.1831 38° Northeast 535 616 34,900  Descending Houston Center
04:38AM 31.5075 -90.0764 37° Northeast 535 616 35,000 50 Climbing Houston Center
04:39AM 31.6256 -89.9678 38° Northeast 537 618 35,000  Level Houston Center
04:39AM 31.6711 -89.9206 41° Northeast 533 613 35,000  Level Memphis Center
04:40AM 31.7897 -89.8172 37° Northeast 533 613 35,000  Level Memphis Center
04:41AM 31.9083 -89.7064 38° Northeast 538 619 35,000  Level Memphis Center
04:42AM 32.0267 -89.5978 38° Northeast 538 619 35,000  Level Memphis Center
04:43AM 32.1469 -89.4889 37° Northeast 538 619 35,000  Level Memphis Center
04:44AM 32.2631 -89.3794 39° Northeast 533 613 35,000  Level Memphis Center
04:45AM 32.3833 -89.2700 38° Northeast 533 613 35,000  Level Memphis Center
04:46AM 32.5011 -89.1603 38° Northeast 533 613 35,000  Level Memphis Center
04:47AM 32.6192 -89.0525 38° Northeast 533 613 35,000  Level Memphis Center
04:48AM 32.7389 -88.9397 38° Northeast 538 619 35,000  Level Memphis Center
04:49AM 32.8689 -88.8189 38° Northeast 538 619 35,000  Level Memphis Center
04:50AM 32.9867 -88.7078 38° Northeast 538 619 35,000  Level Memphis Center
04:51AM 33.1061 -88.5964 38° Northeast 539 620 35,000  Level Memphis Center
04:52AM 33.2194 -88.4875 39° Northeast 534 615 35,000  Level Memphis Center
04:53AM 33.3367 -88.3756 39° Northeast 534 615 35,000  Level Memphis Center
04:54AM 33.4517 -88.2658 39° Northeast 534 615 35,000  Level Memphis Center
04:55AM 33.5522 -88.1636 40° Northeast 534 615 35,000  Level Memphis Center
04:56AM 33.6669 -88.0536 39° Northeast 534 615 35,000  Level Memphis Center
04:57AM 33.7819 -87.9431 39° Northeast 529 609 35,000  Level Memphis Center
04:58AM 33.9150 -87.8142 39° Northeast 539 620 35,000  Level Memphis Center
04:59AM 34.0233 -87.7056 40° Northeast 531 611 35,000  Level Memphis Center
05:00AM 34.1397 -87.5942 38° Northeast 526 605 35,000  Level Memphis Center
05:01AM 34.2519 -87.4825 39° Northeast 526 605 35,000  Level Memphis Center
05:02AM 34.3622 -87.3731 39° Northeast 520 598 35,000  Level Memphis Center
05:03AM 34.4483 -87.2883 39° Northeast 510 587 35,000  Level Atlanta Center
05:04AM 34.5597 -87.1789 39° Northeast 510 587 35,000  Level Atlanta Center
05:05AM 34.6689 -87.0719 39° Northeast 510 587 35,000  Level Atlanta Center
05:06AM 34.7803 -86.9597 40° Northeast 510 587 35,000  Level Atlanta Center
05:07AM 34.8911 -86.8497 39° Northeast 510 587 35,000  Level Atlanta Center
05:08AM 34.9925 -86.7500 39° Northeast 514 592 35,000  Level Memphis Center
05:09AM 35.0917 -86.6469 40° Northeast 498 573 35,000  Level Memphis Center
05:10AM 35.2008 -86.5353 40° Northeast 498 573 35,000  Level Memphis Center
05:11AM 35.3100 -86.4261 39° Northeast 511 588 35,000  Level Memphis Center
05:12AM 35.4169 -86.3139 41° Northeast 506 582 35,000 -50 Level Memphis Center
05:13AM 35.5239 -86.2067 39° Northeast 511 588 34,900  Descending Memphis Center
05:14AM 35.6289 -86.0992 40° Northeast 506 582 35,000 50 Climbing Memphis Center
05:15AM 35.7256 -85.9997 40° Northeast 506 582 35,000  Level Memphis Center
05:16AM 35.8300 -85.8917 40° Northeast 501 577 35,000  Level Memphis Center
05:17AM 35.9425 -85.7753 40° Northeast 494 568 35,000  Level Memphis Center
05:19AM 36.1728 -85.5361 40° Northeast 496 571 35,000  Level Indianapolis Center
05:20AM 36.2794 -85.4242 40° Northeast 498 573 35,000  Level Indianapolis Center
05:21AM 36.3850 -85.3136 40° Northeast 494 568 35,000  Level Indianapolis Center
05:22AM 36.4897 -85.2017 41° Northeast 493 567 35,000  Level Indianapolis Center
05:23AM 36.5958 -85.0894 40° Northeast 497 572 35,000  Level Indianapolis Center
05:24AM 36.7031 -84.9756 40° Northeast 503 579 35,000  Level Indianapolis Center
05:25AM 36.8078 -84.8653 40° Northeast 493 567 35,000  Level Indianapolis Center
05:26AM 36.9128 -84.7506 41° Northeast 500 575 35,000  Level Indianapolis Center
05:27AM 37.0181 -84.6386 40° Northeast 497 572 35,000  Level Indianapolis Center
05:28AM 37.1169 -84.5308 41° Northeast 497 572 35,000  Level Indianapolis Center
05:29AM 37.2233 -84.4153 41° Northeast 505 581 35,000  Level Indianapolis Center
05:30AM 37.3292 -84.3017 40° Northeast 502 578 35,000  Level Indianapolis Center
05:31AM 37.4356 -84.1861 41° Northeast 502 578 35,000  Level Indianapolis Center
05:32AM 37.5436 -84.0681 41° Northeast 511 588 35,000  Level Indianapolis Center
05:33AM 37.6494 -83.9531 41° Northeast 504 580 35,000  Level Indianapolis Center
05:34AM 37.7550 -83.8347 42° Northeast 507 583 35,000  Level Indianapolis Center
05:35AM 37.8597 -83.7172 42° Northeast 505 581 35,000  Level Indianapolis Center
05:36AM 37.9650 -83.5997 41° Northeast 504 580 35,000  Level Indianapolis Center
05:37AM 38.0683 -83.4819 42° Northeast 498 573 35,000  Level Indianapolis Center
05:38AM 38.1731 -83.3644 41° Northeast 505 581 35,000  Level Indianapolis Center
05:39AM 38.2781 -83.2472 41° Northeast 501 577 35,000  Level Indianapolis Center
05:40AM 38.3822 -83.1286 42° Northeast 501 577 35,000  Level Indianapolis Center
05:41AM 38.4881 -83.0103 41° Northeast 503 579 35,000  Level Indianapolis Center
05:42AM 38.5922 -82.8903 42° Northeast 505 581 35,000  Level Indianapolis Center
05:43AM 38.6933 -82.7728 42° Northeast 507 583 35,000  Level Indianapolis Center
05:44AM 38.7983 -82.6522 42° Northeast 504 580 35,000  Level Indianapolis Center
05:45AM 38.9039 -82.5317 42° Northeast 506 582 35,000  Level Indianapolis Center
05:46AM 39.0097 -82.4089 42° Northeast 508 585 35,000  Level Indianapolis Center
05:47AM 39.1144 -82.2864 42° Northeast 508 585 35,000  Level Indianapolis Center
05:48AM 39.2211 -82.1622 42° Northeast 512 589 35,000  Level Indianapolis Center
05:49AM 39.3275 -82.0383 42° Northeast 512 589 35,000  Level Indianapolis Center
05:50AM 39.4317 -81.9131 43° Northeast 509 586 35,000  Level Indianapolis Center
05:51AM 39.5369 -81.7878 43° Northeast 509 586 35,000  Level Indianapolis Center
05:52AM 39.6411 -81.6631 43° Northeast 509 586 35,000  Level Indianapolis Center
05:53AM 39.7314 -81.5711 38° Northeast 504 580 35,000  Level Cleveland Center
05:54AM 39.8425 -81.4833 31° Northeast 488 562 35,000  Level Cleveland Center
05:55AM 39.9664 -81.3847 31° Northeast 499 574 35,000  Level Cleveland Center
05:56AM 40.0817 -81.2939 31° Northeast 499 574 35,000  Level Cleveland Center
05:57AM 40.1989 -81.2000 31° Northeast 494 568 35,000  Level Cleveland Center
05:58AM 40.3139 -81.1031 33° Northeast 494 568 35,000  Level Cleveland Center
05:59AM 40.4311 -81.0086 32° Northeast 494 568 35,000  Level Cleveland Center
06:00AM 40.5461 -80.9136 32° Northeast 494 568 35,000  Level Cleveland Center
06:01AM 40.6631 -80.8211 31° Northeast 494 568 35,000  Level Cleveland Center
06:02AM 40.7781 -80.7256 32° Northeast 489 563 35,000  Level Cleveland Center
06:03AM 40.8969 -80.6297 31° Northeast 490 564 35,000 -250 Level Cleveland Center
06:04AM 41.0136 -80.5336 32° Northeast 490 564 34,500 -500 Descending Cleveland Center
06:05AM 41.1406 -80.4314 31° Northeast 490 564 34,000 -250 Descending Cleveland Center
06:06AM 41.2467 -80.3372 34° Northeast 499 574 34,000  Level Cleveland Center
06:07AM 41.3653 -80.2372 32° Northeast 499 574 34,000  Level Cleveland Center
06:08AM 41.4839 -80.1397 32° Northeast 499 574 34,000  Level Cleveland Center
06:09AM 41.6022 -80.0389 32° Northeast 499 574 34,000  Level Cleveland Center
06:10AM 41.7289 -79.9322 32° Northeast 499 574 34,000 -250 Level Cleveland Center
06:11AM 41.8514 -79.8528 26° Northeast 488 562 33,500 -700 Descending Cleveland Center
06:12AM 41.9656 -79.7928 21° North 488 562 32,600 -950 Descending Cleveland Center
06:13AM 42.0944 -79.7242 22° Northeast 488 562 31,600 -1,000 Descending Cleveland Center
06:14AM 42.2231 -79.6522 22° Northeast 488 562 30,600 -1,000 Descending Cleveland Center
06:15AM 42.3517 -79.5775 23° Northeast 493 567 29,600 -1,000 Descending Cleveland Center
06:16AM 42.4761 -79.5078 22° Northeast 493 567 28,600 -1,000 Descending Cleveland Center
06:17AM 42.6047 -79.4381 22° Northeast 493 567 27,600 -1,550 Descending Cleveland Center
06:18AM 42.7314 -79.4072 10° North 488 562 25,500 -2,700 Descending Cleveland Center
06:19AM 42.8583 -79.3964 North 464 534 22,200 -3,556 Descending Cleveland Center
06:20AM 42.9000 -79.3667 28° Northeast 450 518 20,700 -3,333 Descending Toronto Center
06:21AM 43.0167 -79.3667 360° North 420 483 17,700 -2,800 Descending Toronto Center
06:22AM 43.1333 -79.3667 360° North 400 460 15,100 -2,650 Descending Toronto Center
06:23AM 43.2333 -79.3333 14° North 370 426 12,400 -1,550 Descending Toronto Center
06:24AM 43.3167 -79.3500 352° North 340 391 12,000 -750 Descending Toronto Center
06:25AM 43.3833 -79.4000 331° Northwest 280 322 10,900 -1,350 Descending Toronto Center
06:26AM 43.4500 -79.4500 331° Northwest 260 299 9,300 -1,450 Descending Toronto Center
06:27AM 43.5167 -79.4667 350° North 260 299 8,000 -850 Descending Toronto Center
06:28AM 43.5833 -79.5167 331° Northwest 250 288 7,600 -800 Descending Toronto Center
06:29AM 43.6333 -79.4667 36° Northeast 240 276 6,400 -1,200 Descending Toronto Center
06:30AM 43.6833 -79.4000 44° Northeast 240 276 5,200 -1,100 Descending Toronto Center
06:31AM 43.7333 -79.3333 44° Northeast 230 265 4,200 -850 Descending Toronto Center
06:32AM 43.7667 -79.3833 313° West 180 207 3,500 -600 Descending Toronto Center
06:33AM 43.7500 -79.4500 251° West 180 207 3,000 -750 Descending Toronto Center
06:34AM 43.7167 -79.5000 227° Southwest 190 219 2,000 -1,000 Descending Toronto Center

Login

Don't have an account? Register now (free) for customized features, flight alerts, and more!